AWE2204 KDCA-KLGA
Flight info
| Callsign | AWE2204 |
|---|---|
| Flight time | 0h 43m |
| Altitude | 29000 |
| Route | DOCTR5 AGARD SPEAK PROUD2 |
| Aircraft | A319/M-SDE3FGHIRWY/LB1 |
Departure
| Time | 2026-04-22 21:32 |
|---|---|
| Airport | Ronald Reagan Washington National Airport (KDCA) |
Arrival
| Time | 2026-04-22 22:15 |
|---|---|
| Airport | LaGuardia Airport (KLGA) |
| Time | Latitude | Longitude | Altitude | Speed | Heading |
|---|---|---|---|---|---|
| 2026-04-22 21:05 | 38.85474 | -77.04146 | 26 ft | 0 kts | 172° |
| 2026-04-22 21:23 | 38.85479 | -77.04147 | 26 ft | 2 kts | 168° |
| 2026-04-22 21:23 | 38.85495 | -77.04150 | 31 ft | 2 kts | 155° |
| 2026-04-22 21:23 | 38.85509 | -77.04162 | 30 ft | 2 kts | 117° |
| 2026-04-22 21:24 | 38.85513 | -77.04182 | 26 ft | 2 kts | 78° |
| 2026-04-22 21:24 | 38.85509 | -77.04202 | 27 ft | 2 kts | 73° |
| 2026-04-22 21:24 | 38.85508 | -77.04203 | 27 ft | 0 kts | 73° |
| 2026-04-22 21:27 | 38.85511 | -77.04192 | 27 ft | 3 kts | 73° |
| 2026-04-22 21:27 | 38.85520 | -77.04154 | 29 ft | 5 kts | 73° |
| 2026-04-22 21:27 | 38.85534 | -77.04100 | 26 ft | 7 kts | 71° |
| 2026-04-22 21:28 | 38.85561 | -77.04042 | 27 ft | 8 kts | 26° |
| 2026-04-22 21:28 | 38.85612 | -77.04038 | 28 ft | 7 kts | 358° |
| 2026-04-22 21:28 | 38.85661 | -77.04040 | 29 ft | 8 kts | 5° |
| 2026-04-22 21:28 | 38.85702 | -77.03981 | 28 ft | 11 kts | 71° |
| 2026-04-22 21:29 | 38.85762 | -77.03978 | 28 ft | 10 kts | 353° |
| 2026-04-22 21:29 | 38.85836 | -77.03986 | 28 ft | 12 kts | 355° |
| 2026-04-22 21:29 | 38.85923 | -77.03995 | 27 ft | 14 kts | 355° |
| 2026-04-22 21:29 | 38.85998 | -77.03986 | 27 ft | 0 kts | 15° |
| 2026-04-22 21:30 | 38.85998 | -77.03985 | 27 ft | 0 kts | 15° |
| 2026-04-22 21:30 | 38.86030 | -77.03974 | 26 ft | 13 kts | 16° |
| 2026-04-22 21:31 | 38.86112 | -77.03881 | 23 ft | 11 kts | 77° |
| 2026-04-22 21:31 | 38.86093 | -77.03868 | 24 ft | 8 kts | 178° |
| 2026-04-22 21:31 | 38.85811 | -77.03843 | 27 ft | 83 kts | 175° |
| 2026-04-22 21:31 | 38.84975 | -77.03767 | 67 ft | 150 kts | 178° |
| 2026-04-22 21:32 | 38.83940 | -77.03667 | 806 ft | 150 kts | 174° |
| 2026-04-22 21:32 | 38.82898 | -77.03458 | 1500 ft | 153 kts | 174° |
| 2026-04-22 21:32 | 38.81854 | -77.03236 | 2137 ft | 152 kts | 174° |
| 2026-04-22 21:32 | 38.80749 | -77.03001 | 2457 ft | 172 kts | 174° |
| 2026-04-22 21:33 | 38.79489 | -77.02738 | 2764 ft | 195 kts | 174° |
| 2026-04-22 21:33 | 38.78069 | -77.02443 | 3101 ft | 218 kts | 175° |
| 2026-04-22 21:33 | 38.76516 | -77.01991 | 3511 ft | 243 kts | 158° |
| 2026-04-22 21:33 | 38.75253 | -77.00467 | 4171 ft | 266 kts | 120° |
| 2026-04-22 21:34 | 38.74729 | -76.98120 | 4833 ft | 282 kts | 95° |
| 2026-04-22 21:34 | 38.74719 | -76.95588 | 5710 ft | 288 kts | 78° |
| 2026-04-22 21:34 | 38.75445 | -76.93205 | 6627 ft | 289 kts | 55° |
| 2026-04-22 21:34 | 38.76653 | -76.91162 | 7561 ft | 288 kts | 42° |
| 2026-04-22 21:35 | 38.78171 | -76.89500 | 8497 ft | 287 kts | 28° |
| 2026-04-22 21:35 | 38.79864 | -76.88145 | 9456 ft | 289 kts | 27° |
| 2026-04-22 21:35 | 38.81586 | -76.86779 | 10264 ft | 297 kts | 26° |
| 2026-04-22 21:35 | 38.83419 | -76.85340 | 10564 ft | 321 kts | 27° |
| 2026-04-22 21:36 | 38.85272 | -76.83527 | 10779 ft | 350 kts | 39° |
| 2026-04-22 21:36 | 38.86914 | -76.81092 | 11151 ft | 370 kts | 51° |
| 2026-04-22 21:36 | 38.88190 | -76.78172 | 11805 ft | 380 kts | 61° |
| 2026-04-22 21:36 | 38.89334 | -76.75097 | 12528 ft | 383 kts | 60° |
| 2026-04-22 21:37 | 38.90494 | -76.72005 | 13246 ft | 386 kts | 60° |
| 2026-04-22 21:37 | 38.91671 | -76.68890 | 13935 ft | 390 kts | 60° |
| 2026-04-22 21:37 | 38.92857 | -76.65747 | 14590 ft | 393 kts | 60° |
| 2026-04-22 21:37 | 38.94048 | -76.62572 | 15212 ft | 396 kts | 60° |
| 2026-04-22 21:38 | 38.95206 | -76.59387 | 15835 ft | 400 kts | 62° |
| 2026-04-22 21:38 | 38.96332 | -76.56048 | 16475 ft | 404 kts | 63° |
| 2026-04-22 21:38 | 38.97396 | -76.52738 | 17101 ft | 408 kts | 64° |
| 2026-04-22 21:38 | 38.98463 | -76.49348 | 17737 ft | 411 kts | 64° |
| 2026-04-22 21:39 | 38.99544 | -76.45922 | 18330 ft | 416 kts | 64° |
| 2026-04-22 21:39 | 39.00595 | -76.42437 | 18857 ft | 422 kts | 68° |
| 2026-04-22 21:39 | 39.01261 | -76.38739 | 19397 ft | 430 kts | 78° |
| 2026-04-22 21:39 | 39.01641 | -76.34900 | 19930 ft | 434 kts | 79° |
| 2026-04-22 21:40 | 39.02020 | -76.31041 | 20451 ft | 437 kts | 79° |
| 2026-04-22 21:40 | 39.02401 | -76.27149 | 20886 ft | 441 kts | 79° |
| 2026-04-22 21:40 | 39.02660 | -76.24501 | 20991 ft | 441 kts | 79° |
| 2026-04-22 21:40 | 39.03049 | -76.20539 | 21039 ft | 453 kts | 79° |
| 2026-04-22 21:41 | 39.03453 | -76.16466 | 21036 ft | 465 kts | 79° |
| 2026-04-22 21:41 | 39.03858 | -76.12325 | 21040 ft | 469 kts | 79° |
| 2026-04-22 21:41 | 39.04259 | -76.08156 | 21036 ft | 470 kts | 79° |
| 2026-04-22 21:41 | 39.04607 | -76.03957 | 21036 ft | 472 kts | 82° |
| 2026-04-22 21:42 | 39.04851 | -75.99744 | 21036 ft | 473 kts | 83° |
| 2026-04-22 21:42 | 39.05022 | -75.95513 | 21035 ft | 473 kts | 84° |
| 2026-04-22 21:42 | 39.05156 | -75.91296 | 21040 ft | 473 kts | 85° |
| 2026-04-22 21:42 | 39.05287 | -75.87062 | 21037 ft | 473 kts | 84° |
| 2026-04-22 21:43 | 39.05460 | -75.82839 | 21032 ft | 472 kts | 81° |
| 2026-04-22 21:43 | 39.06063 | -75.78721 | 21030 ft | 467 kts | 70° |
| 2026-04-22 21:43 | 39.07187 | -75.74837 | 21035 ft | 461 kts | 60° |
| 2026-04-22 21:43 | 39.08769 | -75.71275 | 21033 ft | 456 kts | 51° |
| 2026-04-22 21:44 | 39.10745 | -75.68114 | 21030 ft | 450 kts | 42° |
| 2026-04-22 21:44 | 39.12930 | -75.65233 | 21028 ft | 449 kts | 41° |
| 2026-04-22 21:44 | 39.15111 | -75.62349 | 21036 ft | 450 kts | 41° |
| 2026-04-22 21:44 | 39.17284 | -75.59455 | 21034 ft | 449 kts | 41° |
| 2026-04-22 21:45 | 39.19425 | -75.56595 | 21030 ft | 449 kts | 41° |
| 2026-04-22 21:45 | 39.21594 | -75.53692 | 21029 ft | 449 kts | 41° |
| 2026-04-22 21:45 | 39.23889 | -75.50992 | 21025 ft | 444 kts | 33° |
| 2026-04-22 21:45 | 39.26409 | -75.48712 | 21028 ft | 441 kts | 30° |
| 2026-04-22 21:46 | 39.28947 | -75.46478 | 21025 ft | 441 kts | 30° |
| 2026-04-22 21:46 | 39.31479 | -75.44245 | 21026 ft | 441 kts | 30° |
| 2026-04-22 21:46 | 39.34012 | -75.41999 | 21047 ft | 441 kts | 30° |
| 2026-04-22 21:46 | 39.36544 | -75.39750 | 21045 ft | 441 kts | 30° |
| 2026-04-22 21:47 | 39.39071 | -75.37504 | 21049 ft | 442 kts | 30° |
| 2026-04-22 21:47 | 39.41602 | -75.35251 | 21048 ft | 442 kts | 30° |
| 2026-04-22 21:47 | 39.44130 | -75.32998 | 21047 ft | 442 kts | 30° |
| 2026-04-22 21:47 | 39.46661 | -75.30733 | 21044 ft | 441 kts | 30° |
| 2026-04-22 21:48 | 39.49184 | -75.28473 | 21043 ft | 441 kts | 30° |
| 2026-04-22 21:48 | 39.51704 | -75.26211 | 21041 ft | 441 kts | 30° |
| 2026-04-22 21:48 | 39.54210 | -75.23915 | 21052 ft | 442 kts | 31° |
| 2026-04-22 21:48 | 39.56706 | -75.21580 | 21051 ft | 442 kts | 31° |
| 2026-04-22 21:49 | 39.59190 | -75.19231 | 21050 ft | 442 kts | 31° |
| 2026-04-22 21:49 | 39.61670 | -75.16876 | 21052 ft | 442 kts | 31° |
| 2026-04-22 21:49 | 39.64151 | -75.14524 | 21052 ft | 442 kts | 31° |
| 2026-04-22 21:49 | 39.66633 | -75.12176 | 21050 ft | 442 kts | 31° |
| 2026-04-22 21:50 | 39.69131 | -75.09851 | 21054 ft | 441 kts | 30° |
| 2026-04-22 21:50 | 39.71661 | -75.07615 | 21055 ft | 440 kts | 29° |
| 2026-04-22 21:50 | 39.74197 | -75.05449 | 20899 ft | 428 kts | 28° |
| 2026-04-22 21:50 | 39.76644 | -75.03382 | 20750 ft | 410 kts | 28° |
| 2026-04-22 21:51 | 39.78957 | -75.01426 | 20612 ft | 384 kts | 28° |
| 2026-04-22 21:51 | 39.81125 | -74.99578 | 20491 ft | 360 kts | 27° |
| 2026-04-22 21:51 | 39.83161 | -74.97831 | 20203 ft | 343 kts | 27° |
| 2026-04-22 21:52 | 39.87054 | -74.94447 | 19035 ft | 332 kts | 28° |
| 2026-04-22 21:52 | 39.88943 | -74.92746 | 18418 ft | 329 kts | 29° |
| 2026-04-22 21:52 | 39.90807 | -74.91042 | 17736 ft | 325 kts | 30° |
| 2026-04-22 21:52 | 39.92582 | -74.89223 | 17049 ft | 327 kts | 39° |
| 2026-04-22 21:53 | 39.94118 | -74.87046 | 16375 ft | 327 kts | 42° |
| 2026-04-22 21:53 | 39.95641 | -74.84857 | 15734 ft | 324 kts | 42° |
| 2026-04-22 21:53 | 39.97149 | -74.82697 | 15114 ft | 321 kts | 42° |
| 2026-04-22 21:53 | 39.98650 | -74.80554 | 14508 ft | 319 kts | 42° |
| 2026-04-22 21:54 | 40.00138 | -74.78427 | 13937 ft | 316 kts | 43° |
| 2026-04-22 21:54 | 40.01613 | -74.76315 | 13286 ft | 313 kts | 43° |
| 2026-04-22 21:54 | 40.03073 | -74.74220 | 12633 ft | 311 kts | 43° |
| 2026-04-22 21:54 | 40.04520 | -74.72145 | 11998 ft | 308 kts | 43° |
| 2026-04-22 21:55 | 40.05901 | -74.70159 | 11405 ft | 306 kts | 43° |
| 2026-04-22 21:55 | 40.07323 | -74.68111 | 10805 ft | 303 kts | 43° |
| 2026-04-22 21:55 | 40.08736 | -74.66076 | 10231 ft | 300 kts | 43° |
| 2026-04-22 21:55 | 40.10123 | -74.64081 | 10001 ft | 296 kts | 43° |
| 2026-04-22 21:56 | 40.11506 | -74.62094 | 9960 ft | 295 kts | 43° |
| 2026-04-22 21:56 | 40.12889 | -74.60104 | 9969 ft | 295 kts | 43° |
| 2026-04-22 21:56 | 40.14269 | -74.58112 | 9963 ft | 295 kts | 43° |
| 2026-04-22 21:56 | 40.15632 | -74.56147 | 9966 ft | 295 kts | 43° |
| 2026-04-22 21:57 | 40.17010 | -74.54161 | 9968 ft | 295 kts | 43° |
| 2026-04-22 21:57 | 40.18390 | -74.52175 | 9968 ft | 295 kts | 43° |
| 2026-04-22 21:57 | 40.19769 | -74.50187 | 9882 ft | 294 kts | 43° |
| 2026-04-22 21:57 | 40.21164 | -74.48249 | 9526 ft | 291 kts | 40° |
| 2026-04-22 21:58 | 40.22602 | -74.46396 | 9202 ft | 289 kts | 39° |
| 2026-04-22 21:58 | 40.24055 | -74.44583 | 8894 ft | 288 kts | 38° |
| 2026-04-22 21:58 | 40.25507 | -74.42789 | 8603 ft | 286 kts | 38° |
| 2026-04-22 21:58 | 40.26947 | -74.41007 | 8283 ft | 284 kts | 38° |
| 2026-04-22 21:59 | 40.28379 | -74.39225 | 7932 ft | 283 kts | 39° |
| 2026-04-22 21:59 | 40.29800 | -74.37447 | 7582 ft | 282 kts | 39° |
| 2026-04-22 21:59 | 40.31206 | -74.35676 | 7268 ft | 280 kts | 39° |
| 2026-04-22 21:59 | 40.32603 | -74.33906 | 6929 ft | 278 kts | 39° |
| 2026-04-22 22:00 | 40.33990 | -74.32146 | 6605 ft | 277 kts | 39° |
| 2026-04-22 22:00 | 40.35368 | -74.30394 | 6281 ft | 275 kts | 39° |
| 2026-04-22 22:00 | 40.36739 | -74.28654 | 5935 ft | 274 kts | 39° |
| 2026-04-22 22:00 | 40.38106 | -74.26918 | 5582 ft | 273 kts | 39° |
| 2026-04-22 22:01 | 40.39472 | -74.25185 | 5232 ft | 273 kts | 39° |
| 2026-04-22 22:01 | 40.40833 | -74.23459 | 4884 ft | 272 kts | 39° |
| 2026-04-22 22:01 | 40.42192 | -74.21733 | 4555 ft | 271 kts | 40° |
| 2026-04-22 22:01 | 40.43545 | -74.20010 | 4205 ft | 270 kts | 41° |
| 2026-04-22 22:02 | 40.44886 | -74.18299 | 3990 ft | 269 kts | 41° |
| 2026-04-22 22:02 | 40.46228 | -74.16591 | 3986 ft | 270 kts | 41° |
| 2026-04-22 22:02 | 40.47579 | -74.14873 | 3990 ft | 270 kts | 41° |
| 2026-04-22 22:02 | 40.48930 | -74.13151 | 3990 ft | 270 kts | 41° |
| 2026-04-22 22:03 | 40.50280 | -74.11427 | 3992 ft | 271 kts | 41° |
| 2026-04-22 22:03 | 40.51676 | -74.09775 | 3983 ft | 268 kts | 30° |
| 2026-04-22 22:03 | 40.53341 | -74.08727 | 3988 ft | 265 kts | 18° |
| 2026-04-22 22:03 | 40.55066 | -74.07894 | 3987 ft | 262 kts | 9° |
| 2026-04-22 22:04 | 40.56856 | -74.07679 | 3990 ft | 258 kts | 359° |
| 2026-04-22 22:04 | 40.58654 | -74.07565 | 3998 ft | 259 kts | 359° |
| 2026-04-22 22:04 | 40.60457 | -74.07455 | 3998 ft | 259 kts | 359° |
| 2026-04-22 22:04 | 40.62256 | -74.07347 | 3999 ft | 259 kts | 359° |
| 2026-04-22 22:05 | 40.64043 | -74.06946 | 4002 ft | 263 kts | 13° |
| 2026-04-22 22:05 | 40.65759 | -74.06108 | 4011 ft | 264 kts | 19° |
| 2026-04-22 22:05 | 40.67459 | -74.05178 | 4014 ft | 264 kts | 19° |
| 2026-04-22 22:05 | 40.69145 | -74.04261 | 4011 ft | 264 kts | 19° |
| 2026-04-22 22:06 | 40.70847 | -74.03336 | 4009 ft | 263 kts | 19° |
| 2026-04-22 22:06 | 40.72538 | -74.02416 | 4009 ft | 263 kts | 19° |
| 2026-04-22 22:06 | 40.74231 | -74.01494 | 4009 ft | 263 kts | 19° |
| 2026-04-22 22:06 | 40.75923 | -74.00571 | 4012 ft | 264 kts | 19° |
| 2026-04-22 22:07 | 40.77616 | -73.99648 | 4009 ft | 263 kts | 20° |
| 2026-04-22 22:07 | 40.79283 | -73.98741 | 3990 ft | 263 kts | 20° |
| 2026-04-22 22:07 | 40.80997 | -73.97806 | 3991 ft | 263 kts | 20° |
| 2026-04-22 22:07 | 40.82597 | -73.96693 | 3988 ft | 265 kts | 28° |
| 2026-04-22 22:08 | 40.84179 | -73.95435 | 3716 ft | 263 kts | 28° |
| 2026-04-22 22:08 | 40.85710 | -73.94202 | 3279 ft | 261 kts | 29° |
| 2026-04-22 22:08 | 40.87269 | -73.92949 | 2851 ft | 257 kts | 30° |
| 2026-04-22 22:08 | 40.88775 | -73.91740 | 2363 ft | 256 kts | 31° |
| 2026-04-22 22:09 | 40.90282 | -73.90526 | 2024 ft | 247 kts | 32° |
| 2026-04-22 22:09 | 40.91684 | -73.89396 | 1984 ft | 225 kts | 33° |
| 2026-04-22 22:09 | 40.92968 | -73.88364 | 1990 ft | 213 kts | 32° |
| 2026-04-22 22:09 | 40.94240 | -73.87338 | 1992 ft | 214 kts | 33° |
| 2026-04-22 22:10 | 40.95466 | -73.86235 | 1982 ft | 213 kts | 47° |
| 2026-04-22 22:10 | 40.96130 | -73.84537 | 1990 ft | 210 kts | 83° |
| 2026-04-22 22:10 | 40.95928 | -73.82657 | 1997 ft | 208 kts | 112° |
| 2026-04-22 22:10 | 40.95327 | -73.80907 | 1993 ft | 209 kts | 117° |
| 2026-04-22 22:11 | 40.94564 | -73.79275 | 1990 ft | 210 kts | 132° |
| 2026-04-22 22:11 | 40.93432 | -73.78066 | 1994 ft | 211 kts | 152° |
| 2026-04-22 22:11 | 40.92053 | -73.77446 | 1994 ft | 211 kts | 171° |
| 2026-04-22 22:11 | 40.90588 | -73.77494 | 1996 ft | 213 kts | 191° |
| 2026-04-22 22:12 | 40.89217 | -73.78218 | 1996 ft | 214 kts | 211° |
| 2026-04-22 22:12 | 40.87959 | -73.79266 | 1992 ft | 212 kts | 212° |
| 2026-04-22 22:12 | 40.86751 | -73.80270 | 1929 ft | 198 kts | 211° |
| 2026-04-22 22:12 | 40.85619 | -73.81209 | 1710 ft | 188 kts | 210° |
| 2026-04-22 22:13 | 40.84555 | -73.82092 | 1476 ft | 171 kts | 210° |
| 2026-04-22 22:13 | 40.83616 | -73.82869 | 1246 ft | 149 kts | 211° |
| 2026-04-22 22:13 | 40.82779 | -73.83562 | 1050 ft | 137 kts | 211° |
| 2026-04-22 22:13 | 40.81991 | -73.84213 | 860 ft | 132 kts | 211° |
| 2026-04-22 22:14 | 40.81221 | -73.84860 | 724 ft | 131 kts | 210° |
| 2026-04-22 22:14 | 40.80451 | -73.85501 | 559 ft | 131 kts | 209° |
| 2026-04-22 22:14 | 40.79673 | -73.86125 | 335 ft | 131 kts | 209° |
| 2026-04-22 22:14 | 40.78905 | -73.86772 | 133 ft | 131 kts | 208° |
| 2026-04-22 22:15 | 40.78142 | -73.87402 | 18 ft | 121 kts | 211° |
| 2026-04-22 22:15 | 40.77626 | -73.87824 | 24 ft | 57 kts | 212° |
| 2026-04-22 22:15 | 40.77406 | -73.87986 | 22 ft | 10 kts | 190° |
| 2026-04-22 22:15 | 40.77319 | -73.87996 | 21 ft | 15 kts | 183° |
| 2026-04-22 22:16 | 40.77286 | -73.87924 | 18 ft | 5 kts | 29° |
| 2026-04-22 22:16 | 40.77319 | -73.87927 | 19 ft | 7 kts | 4° |
| 2026-04-22 22:16 | 40.77380 | -73.87879 | 19 ft | 12 kts | 32° |
| 2026-04-22 22:16 | 40.77460 | -73.87811 | 19 ft | 16 kts | 33° |
| 2026-04-22 22:17 | 40.77564 | -73.87727 | 19 ft | 19 kts | 32° |
| 2026-04-22 22:17 | 40.77689 | -73.87624 | 19 ft | 23 kts | 32° |
| 2026-04-22 22:17 | 40.77730 | -73.87500 | 20 ft | 4 kts | 90° |
| 2026-04-22 22:17 | 40.77754 | -73.87439 | 19 ft | 19 kts | 66° |
| 2026-04-22 22:18 | 40.77746 | -73.87210 | 18 ft | 31 kts | 121° |
| 2026-04-22 22:18 | 40.77617 | -73.86940 | 17 ft | 39 kts | 122° |
| 2026-04-22 22:18 | 40.77449 | -73.86613 | 17 ft | 48 kts | 122° |
| 2026-04-22 22:18 | 40.77301 | -73.86301 | 18 ft | 5 kts | 122° |
| 2026-04-22 22:19 | 40.77295 | -73.86296 | 18 ft | 0 kts | 156° |
| 2026-04-22 22:19 | 40.77266 | -73.86314 | 18 ft | 5 kts | 224° |
| 2026-04-22 22:19 | 40.77231 | -73.86346 | 18 ft | 8 kts | 223° |
| 2026-04-22 22:20 | 40.77197 | -73.86388 | 18 ft | 0 kts | 224° |
| 2026-04-22 22:22 | 40.77167 | -73.86402 | 18 ft | 6 kts | 150° |
| 2026-04-22 22:22 | 40.77142 | -73.86371 | 18 ft | 0 kts | 133° |